createdAt,value
2018-12-26T00:02:06.236Z,59.70
2018-12-26T00:04:37.120Z,59.60
2018-12-26T00:07:08.017Z,59.60
2018-12-26T00:09:38.832Z,59.50
2018-12-26T00:12:09.711Z,59.40
2018-12-26T00:14:52.696Z,59.50
2018-12-26T00:17:23.410Z,59.60
2018-12-26T00:20:06.277Z,59.70
2018-12-26T00:22:37.066Z,59.60
2018-12-26T00:25:07.956Z,59.50
2018-12-26T00:27:38.654Z,59.50
2018-12-26T00:30:09.585Z,59.50
2018-12-26T00:32:40.570Z,59.60
2018-12-26T00:35:22.862Z,59.60
2018-12-26T00:37:53.744Z,59.60
2018-12-26T00:40:24.616Z,59.60
2018-12-26T00:43:07.023Z,59.70
2018-12-26T00:45:37.874Z,59.70
2018-12-26T00:48:08.783Z,59.70
2018-12-26T00:50:39.729Z,59.80
2018-12-26T00:53:10.658Z,59.80
2018-12-26T00:55:41.580Z,59.90
2018-12-26T00:58:12.432Z,59.90
2018-12-26T01:00:43.542Z,60.00
2018-12-26T01:03:26.438Z,60.00
2018-12-26T01:05:57.432Z,59.80
2018-12-26T01:08:28.253Z,59.90
2018-12-26T01:11:09.298Z,60.50
2018-12-26T01:13:51.646Z,59.80
2018-12-26T01:16:22.473Z,59.70
2018-12-26T01:18:53.329Z,59.80
2018-12-26T01:21:24.225Z,59.80
2018-12-26T01:23:55.113Z,59.80
2018-12-26T01:26:26.077Z,59.90
2018-12-26T01:28:56.942Z,59.90
2018-12-26T01:31:27.877Z,59.80
2018-12-26T01:34:08.903Z,59.70
2018-12-26T01:36:52.100Z,59.60
2018-12-26T01:39:22.953Z,59.70
2018-12-26T01:42:05.741Z,59.80
2018-12-26T01:44:36.457Z,59.90
2018-12-26T01:47:07.354Z,60.00
2018-12-26T01:49:50.413Z,60.10
2018-12-26T01:52:21.323Z,60.10
2018-12-26T01:54:52.145Z,60.10
2018-12-26T01:57:23.287Z,60.10
2018-12-26T01:59:54.172Z,60.20
2018-12-26T02:02:25.064Z,60.40
2018-12-26T02:05:06.416Z,60.20
2018-12-26T02:07:49.105Z,60.10
2018-12-26T02:10:19.883Z,60.00
2018-12-26T02:12:50.696Z,60.00
2018-12-26T02:15:33.774Z,60.00
2018-12-26T02:18:04.658Z,60.00
2018-12-26T02:20:47.624Z,60.00
2018-12-26T02:23:18.485Z,60.00
2018-12-26T02:25:49.343Z,60.10
2018-12-26T02:28:20.228Z,60.20
2018-12-26T02:30:51.251Z,60.40
2018-12-26T02:33:33.647Z,60.40
2018-12-26T02:36:04.526Z,60.20
2018-12-26T02:38:35.349Z,60.10
2018-12-26T02:41:18.173Z,60.00
2018-12-26T02:43:49.620Z,60.00
2018-12-26T02:46:32.261Z,60.00
2018-12-26T02:49:03.102Z,59.90
2018-12-26T02:51:46.021Z,59.80
2018-12-26T02:54:29.726Z,59.80
2018-12-26T02:57:00.686Z,59.70
2018-12-26T02:59:31.559Z,59.70
2018-12-26T03:02:13.779Z,59.70
2018-12-26T03:04:44.938Z,59.80
2018-12-26T03:07:15.801Z,59.80
2018-12-26T03:09:58.527Z,59.80
2018-12-26T03:12:29.435Z,59.80
2018-12-26T03:15:12.165Z,59.80
2018-12-26T03:17:55.241Z,59.80
2018-12-26T03:20:26.303Z,59.90
2018-12-26T03:23:17.749Z,59.90
2018-12-26T03:25:48.627Z,59.90
2018-12-26T03:28:19.714Z,60.00
2018-12-26T03:30:50.697Z,59.90
2018-12-26T03:33:21.505Z,60.00
2018-12-26T03:35:52.405Z,60.00
2018-12-26T03:38:23.433Z,60.10
2018-12-26T03:40:55.240Z,60.00
2018-12-26T03:43:38.475Z,60.10
2018-12-26T03:46:21.576Z,60.20
2018-12-26T03:48:52.846Z,59.90
2018-12-26T03:51:27.031Z,60.10
2018-12-26T03:53:58.082Z,60.10
2018-12-26T03:56:28.949Z,60.20
2018-12-26T03:59:00.017Z,60.20
2018-12-26T04:01:30.954Z,60.30
2018-12-26T04:04:02.109Z,60.30
2018-12-26T04:06:32.973Z,60.30
2018-12-26T04:09:04.949Z,60.40
2018-12-26T04:11:35.989Z,60.50
2018-12-26T04:14:06.852Z,60.50
2018-12-26T04:16:37.873Z,60.50
2018-12-26T04:19:11.168Z,60.50
2018-12-26T04:21:42.213Z,60.60
2018-12-26T04:24:15.812Z,60.60
2018-12-26T04:26:48.827Z,60.60
2018-12-26T04:29:19.625Z,60.60
2018-12-26T04:31:53.420Z,60.70
2018-12-26T04:34:24.110Z,60.70
2018-12-26T04:36:54.996Z,60.70
2018-12-26T04:39:25.959Z,60.80
2018-12-26T04:41:56.725Z,61.00
2018-12-26T04:44:27.550Z,61.00
2018-12-26T04:46:58.270Z,61.00
2018-12-26T04:49:29.087Z,61.20
2018-12-26T04:52:00.066Z,61.20
2018-12-26T04:54:30.851Z,61.30
2018-12-26T04:57:01.580Z,61.30
2018-12-26T04:59:32.507Z,61.30
2018-12-26T05:02:03.981Z,61.50
2018-12-26T05:04:34.917Z,61.50
2018-12-26T05:07:05.642Z,61.50
2018-12-26T05:09:36.492Z,61.50
2018-12-26T05:12:07.375Z,61.40
2018-12-26T05:14:38.327Z,61.40
2018-12-26T05:17:09.200Z,61.40
2018-12-26T05:19:39.985Z,61.40
2018-12-26T05:22:10.865Z,61.60
2018-12-26T05:24:41.734Z,61.50
2018-12-26T05:27:12.614Z,61.50
2018-12-26T05:29:43.417Z,61.50
2018-12-26T05:32:14.229Z,61.70
2018-12-26T05:34:45.118Z,61.70
2018-12-26T05:37:16.014Z,61.70
2018-12-26T05:39:46.881Z,62.50
2018-12-26T05:42:17.764Z,61.70
2018-12-26T05:44:48.536Z,61.80
2018-12-26T05:47:19.280Z,61.90
2018-12-26T05:49:50.096Z,61.90
2018-12-26T05:52:20.964Z,62.00
2018-12-26T05:54:51.751Z,62.00
2018-12-26T05:57:22.488Z,62.00
2018-12-26T05:59:53.309Z,62.00
2018-12-26T06:02:24.053Z,62.00
2018-12-26T06:04:54.851Z,62.00
2018-12-26T06:07:25.646Z,62.10
2018-12-26T06:09:56.345Z,62.10
2018-12-26T06:12:27.256Z,62.00
2018-12-26T06:14:58.042Z,62.10
2018-12-26T06:17:29.473Z,62.10
2018-12-26T06:20:00.183Z,62.10
2018-12-26T06:22:31.433Z,62.40
2018-12-26T06:25:02.315Z,62.10
2018-12-26T06:27:33.126Z,62.20
2018-12-26T06:30:04.364Z,62.10
2018-12-26T06:32:35.157Z,62.20
2018-12-26T06:35:06.048Z,62.10
2018-12-26T06:37:36.946Z,62.10
2018-12-26T06:40:07.780Z,62.20
2018-12-26T06:42:38.512Z,62.20
2018-12-26T06:45:09.412Z,62.20
2018-12-26T06:47:40.228Z,62.20
2018-12-26T06:50:11.001Z,62.30
2018-12-26T06:52:41.821Z,62.40
2018-12-26T06:55:12.691Z,62.30
2018-12-26T06:57:43.452Z,62.50
2018-12-26T07:00:14.506Z,62.50
2018-12-26T07:02:45.394Z,62.40
2018-12-26T07:05:16.453Z,62.40
2018-12-26T07:07:47.613Z,62.60
2018-12-26T07:10:18.489Z,62.70
2018-12-26T07:12:49.374Z,62.80
2018-12-26T07:15:20.264Z,62.80
2018-12-26T07:17:51.226Z,62.90
2018-12-26T07:20:22.072Z,62.80
2018-12-26T07:22:52.884Z,63.10
2018-12-26T07:25:23.736Z,63.10
2018-12-26T07:27:54.738Z,63.10
2018-12-26T07:30:25.620Z,63.10
2018-12-26T07:32:56.424Z,63.30
2018-12-26T07:35:27.296Z,63.10
2018-12-26T07:37:58.191Z,63.10
2018-12-26T07:40:29.174Z,62.90
2018-12-26T07:42:59.984Z,62.90
2018-12-26T07:45:30.735Z,62.90
2018-12-26T07:48:01.506Z,63.00
2018-12-26T07:50:32.293Z,63.00
2018-12-26T07:53:03.133Z,63.00
2018-12-26T07:55:33.980Z,62.80
2018-12-26T07:58:04.821Z,62.80
2018-12-26T08:00:35.723Z,62.70
2018-12-26T08:03:06.609Z,62.60
2018-12-26T08:05:37.411Z,63.00
2018-12-26T08:08:08.644Z,63.00
2018-12-26T08:10:39.496Z,63.00
2018-12-26T08:13:10.388Z,62.90
2018-12-26T08:15:41.209Z,62.80
2018-12-26T08:18:12.112Z,62.80
2018-12-26T08:20:42.930Z,62.80
2018-12-26T08:23:13.749Z,62.60
2018-12-26T08:25:44.490Z,62.50
2018-12-26T08:28:15.362Z,62.60
2018-12-26T08:30:46.069Z,62.60
2018-12-26T08:33:17.833Z,62.60
2018-12-26T08:35:48.548Z,62.60
2018-12-26T08:38:19.349Z,62.70
2018-12-26T08:40:50.216Z,62.60
2018-12-26T08:43:21.012Z,62.40
2018-12-26T08:45:51.803Z,62.30
2018-12-26T08:48:22.593Z,62.50
2018-12-26T08:50:53.501Z,62.50
2018-12-26T08:53:24.480Z,62.40
2018-12-26T08:55:55.341Z,62.20
2018-12-26T08:58:26.220Z,61.90
2018-12-26T09:00:57.082Z,61.90
2018-12-26T09:03:27.948Z,61.80
2018-12-26T09:05:58.805Z,61.80
2018-12-26T09:08:29.622Z,61.80
2018-12-26T09:11:00.425Z,61.60
2018-12-26T09:13:31.229Z,61.60
2018-12-26T09:16:02.040Z,61.80
2018-12-26T09:18:32.951Z,62.00
2018-12-26T09:21:03.828Z,62.30
2018-12-26T09:23:34.714Z,62.30
2018-12-26T09:26:06.883Z,62.40
2018-12-26T09:28:43.766Z,62.40
2018-12-26T09:31:10.286Z,62.50
2018-12-26T09:33:41.090Z,62.50
2018-12-26T09:36:11.870Z,62.40
2018-12-26T09:38:42.695Z,62.10
2018-12-26T09:41:13.658Z,62.20
2018-12-26T09:43:44.503Z,61.80
2018-12-26T09:46:15.285Z,61.70
2018-12-26T09:48:46.193Z,61.70
2018-12-26T09:51:16.915Z,61.60
2018-12-26T09:53:47.685Z,61.70
2018-12-26T09:56:18.476Z,61.50
2018-12-26T09:58:52.551Z,61.60
2018-12-26T10:01:22.535Z,61.80
2018-12-26T10:03:53.408Z,61.80
2018-12-26T10:06:24.261Z,61.90
2018-12-26T10:08:58.613Z,61.90
2018-12-26T10:11:29.474Z,61.90
2018-12-26T10:14:10.720Z,62.10
2018-12-26T10:16:41.469Z,61.90
2018-12-26T10:19:12.303Z,61.80
2018-12-26T10:21:43.225Z,61.50
2018-12-26T10:24:14.165Z,61.50
2018-12-26T10:26:45.035Z,61.10
2018-12-26T10:29:15.874Z,61.00
2018-12-26T10:31:46.726Z,60.80
2018-12-26T10:34:17.505Z,60.80
2018-12-26T10:36:48.203Z,60.90
2018-12-26T10:39:19.088Z,60.90
2018-12-26T10:41:50.031Z,60.70
2018-12-26T10:44:20.956Z,60.50
2018-12-26T10:46:51.840Z,60.20
2018-12-26T10:49:22.692Z,60.20
2018-12-26T10:51:53.560Z,60.20
2018-12-26T10:54:24.621Z,60.20
2018-12-26T10:56:55.417Z,60.00
2018-12-26T10:59:26.296Z,59.80
2018-12-26T11:01:57.206Z,59.30
2018-12-26T11:04:28.271Z,59.40
2018-12-26T11:06:59.126Z,59.20
2018-12-26T11:09:30.157Z,59.10
2018-12-26T11:12:01.006Z,59.20
2018-12-26T11:14:31.922Z,59.10
2018-12-26T11:17:02.788Z,58.50
2018-12-26T11:19:33.761Z,58.80
2018-12-26T11:22:04.634Z,58.90
2018-12-26T11:24:35.523Z,58.60
2018-12-26T11:27:06.380Z,58.70
2018-12-26T11:29:37.300Z,58.50
2018-12-26T11:32:08.161Z,58.40
2018-12-26T11:34:38.959Z,58.30
2018-12-26T11:37:09.822Z,58.40
2018-12-26T11:39:40.854Z,58.50
2018-12-26T11:42:11.701Z,58.20
2018-12-26T11:44:42.553Z,58.20
2018-12-26T11:47:13.350Z,58.40
2018-12-26T11:49:44.162Z,58.40
2018-12-26T11:52:14.965Z,58.30
2018-12-26T11:54:45.785Z,58.20
2018-12-26T11:57:16.576Z,57.60
2018-12-26T11:59:47.385Z,57.90
2018-12-26T12:02:20.649Z,58.20
2018-12-26T12:04:53.528Z,58.20
2018-12-26T12:07:24.392Z,58.20
2018-12-26T12:09:55.321Z,58.40
2018-12-26T12:12:26.224Z,58.30
2018-12-26T12:14:57.113Z,58.20
2018-12-26T12:17:28.035Z,58.30
2018-12-26T12:19:58.924Z,58.40
2018-12-26T12:22:29.834Z,58.40
2018-12-26T12:25:00.724Z,58.50
2018-12-26T12:27:31.606Z,58.40
2018-12-26T12:30:02.722Z,58.30
2018-12-26T12:32:33.497Z,58.40
2018-12-26T12:35:04.406Z,58.50
2018-12-26T12:37:36.240Z,58.40
2018-12-26T12:40:08.869Z,58.20
2018-12-26T12:42:39.772Z,58.90
2018-12-26T12:45:10.928Z,58.40
2018-12-26T12:47:41.777Z,58.40
2018-12-26T12:50:12.663Z,58.30
2018-12-26T12:52:43.512Z,58.30
2018-12-26T12:55:14.404Z,58.30
2018-12-26T12:57:45.261Z,58.30
2018-12-26T13:00:16.204Z,58.40
2018-12-26T13:02:47.109Z,58.30
2018-12-26T13:05:18.047Z,58.20
2018-12-26T13:07:48.850Z,58.30
2018-12-26T13:10:19.645Z,58.10
2018-12-26T13:12:51.476Z,58.20
2018-12-26T13:15:22.381Z,58.30
2018-12-26T13:17:53.233Z,58.10
2018-12-26T13:20:24.146Z,58.10
2018-12-26T13:22:54.933Z,58.20
2018-12-26T13:25:25.969Z,58.20
2018-12-26T13:27:56.777Z,58.20
2018-12-26T13:30:27.609Z,58.10
2018-12-26T13:32:58.482Z,58.10
2018-12-26T13:35:29.298Z,57.90
2018-12-26T13:38:00.159Z,57.90
2018-12-26T13:40:31.067Z,58.00
2018-12-26T13:43:01.917Z,57.80
2018-12-26T13:45:32.744Z,57.80
2018-12-26T13:48:03.524Z,57.80
2018-12-26T13:50:34.334Z,57.70
2018-12-26T13:53:05.196Z,57.70
2018-12-26T13:55:36.132Z,57.90
2018-12-26T13:58:06.929Z,58.10
2018-12-26T14:00:37.789Z,58.00
2018-12-26T14:03:08.653Z,57.90
2018-12-26T14:05:39.590Z,57.90
2018-12-26T14:08:10.373Z,58.10
2018-12-26T14:10:41.166Z,58.20
2018-12-26T14:13:11.866Z,58.50
2018-12-26T14:15:42.769Z,58.70
2018-12-26T14:18:13.534Z,58.90
2018-12-26T14:20:44.417Z,59.00
2018-12-26T14:23:15.199Z,59.10
2018-12-26T14:25:46.004Z,59.20
2018-12-26T14:28:16.935Z,59.30
2018-12-26T14:30:47.797Z,59.50
2018-12-26T14:33:18.500Z,59.60
2018-12-26T14:35:58.332Z,59.90
2018-12-26T14:38:29.223Z,60.10
2018-12-26T14:41:00.305Z,61.30
2018-12-26T14:43:31.083Z,61.10
2018-12-26T14:46:01.877Z,61.00
2018-12-26T14:48:32.785Z,61.20
2018-12-26T14:51:03.585Z,61.60
2018-12-26T14:53:34.445Z,61.70
2018-12-26T14:56:05.293Z,61.80
2018-12-26T14:58:36.208Z,61.70
2018-12-26T15:01:07.094Z,62.10
2018-12-26T15:03:37.956Z,62.00
2018-12-26T15:06:08.872Z,62.20
2018-12-26T15:08:39.723Z,62.20
2018-12-26T15:11:10.648Z,62.30
2018-12-26T15:13:41.457Z,63.40
2018-12-26T15:16:12.227Z,62.70
2018-12-26T15:18:43.087Z,62.80
2018-12-26T15:21:13.892Z,62.70
2018-12-26T15:23:44.610Z,62.80
2018-12-26T15:26:15.517Z,63.00
2018-12-26T15:28:46.590Z,63.00
2018-12-26T15:31:17.490Z,63.00
2018-12-26T15:33:48.706Z,63.10
2018-12-26T15:36:19.769Z,63.10
2018-12-26T15:38:50.548Z,63.10
2018-12-26T15:41:21.381Z,63.10
2018-12-26T15:43:52.288Z,63.10
2018-12-26T15:46:23.104Z,63.10
2018-12-26T15:48:53.902Z,63.30
2018-12-26T15:51:24.760Z,63.20
2018-12-26T15:53:55.626Z,63.40
2018-12-26T15:56:26.688Z,63.40
2018-12-26T15:58:57.645Z,63.20
2018-12-26T16:01:28.540Z,63.40
2018-12-26T16:03:59.395Z,63.40
2018-12-26T16:06:30.257Z,63.40
2018-12-26T16:09:01.233Z,63.50
2018-12-26T16:11:32.077Z,63.50
2018-12-26T16:14:02.945Z,63.40
2018-12-26T16:16:33.967Z,63.50
2018-12-26T16:19:04.816Z,63.50
2018-12-26T16:21:35.555Z,63.50
2018-12-26T16:24:06.320Z,63.50
2018-12-26T16:26:37.984Z,63.60
2018-12-26T16:29:08.872Z,63.80
2018-12-26T16:31:39.716Z,63.90
2018-12-26T16:34:10.405Z,64.00
2018-12-26T16:36:41.407Z,64.10
2018-12-26T16:39:12.255Z,64.20
2018-12-26T16:41:43.060Z,64.10
2018-12-26T16:44:13.765Z,64.00
2018-12-26T16:46:44.600Z,64.20
2018-12-26T16:49:15.465Z,64.50
2018-12-26T16:51:46.361Z,64.20
2018-12-26T16:54:17.146Z,64.40
2018-12-26T16:56:47.946Z,64.40
2018-12-26T16:59:18.711Z,64.50
2018-12-26T17:01:49.525Z,64.20
2018-12-26T17:04:20.436Z,64.40
2018-12-26T17:06:51.348Z,64.50
2018-12-26T17:09:22.195Z,64.60
2018-12-26T17:11:53.032Z,64.60
2018-12-26T17:14:23.816Z,64.60
2018-12-26T17:16:54.680Z,64.60
2018-12-26T17:19:25.464Z,64.50
2018-12-26T17:21:56.288Z,64.50
2018-12-26T17:24:27.005Z,64.50
2018-12-26T17:26:57.878Z,64.50
2018-12-26T17:29:28.674Z,64.40
2018-12-26T17:31:59.587Z,64.50
2018-12-26T17:34:30.360Z,64.70
2018-12-26T17:37:01.193Z,64.70
2018-12-26T17:39:33.012Z,64.70
2018-12-26T17:42:03.885Z,64.70
2018-12-26T17:44:34.841Z,64.70
2018-12-26T17:47:07.726Z,64.40
2018-12-26T17:49:38.661Z,64.40
2018-12-26T17:52:09.516Z,64.40
2018-12-26T17:55:01.114Z,64.40
2018-12-26T17:57:38.607Z,64.30
2018-12-26T18:00:42.693Z,64.30
2018-12-26T18:03:13.551Z,64.20
2018-12-26T18:05:45.378Z,64.40
2018-12-26T18:08:16.246Z,64.50
2018-12-26T18:10:47.042Z,64.60
2018-12-26T18:13:29.745Z,64.60
2018-12-26T18:16:00.524Z,64.70
2018-12-26T18:18:31.597Z,64.70
2018-12-26T18:21:02.397Z,64.50
2018-12-26T18:23:33.240Z,64.50
2018-12-26T18:26:04.096Z,64.50
2018-12-26T18:28:34.913Z,64.50
2018-12-26T18:31:05.795Z,64.60
2018-12-26T18:33:36.617Z,64.50
2018-12-26T18:36:20.493Z,64.60
2018-12-26T18:39:05.041Z,64.50
2018-12-26T18:41:35.212Z,64.50
2018-12-26T18:44:06.371Z,64.50
2018-12-26T18:46:49.043Z,64.60
2018-12-26T18:49:32.250Z,64.50
2018-12-26T18:52:14.876Z,64.60
2018-12-26T18:54:45.606Z,64.50
2018-12-26T18:57:28.465Z,64.50
2018-12-26T18:59:59.275Z,64.60
2018-12-26T19:02:30.309Z,64.70
2018-12-26T19:05:01.134Z,64.60
2018-12-26T19:07:31.993Z,64.50
2018-12-26T19:10:07.347Z,64.50
2018-12-26T19:12:38.277Z,64.50
2018-12-26T19:17:41.053Z,64.70
2018-12-26T19:20:12.026Z,64.80
2018-12-26T19:22:54.699Z,64.80
2018-12-26T19:25:25.540Z,64.80
2018-12-26T19:27:56.285Z,64.80
2018-12-26T19:30:27.129Z,65.60
2018-12-26T19:32:57.932Z,64.80
2018-12-26T19:35:28.656Z,64.80
2018-12-26T19:37:59.627Z,64.70
2018-12-26T19:40:30.559Z,64.80
2018-12-26T19:43:01.532Z,64.80
2018-12-26T19:45:32.341Z,64.90
2018-12-26T19:48:03.172Z,64.90
2018-12-26T19:50:46.325Z,64.90
2018-12-26T19:53:17.262Z,64.80
2018-12-26T19:55:48.125Z,64.90
2018-12-26T19:58:19.183Z,64.90
2018-12-26T20:00:52.445Z,64.80
2018-12-26T20:03:23.321Z,64.80
2018-12-26T20:05:54.092Z,64.90
2018-12-26T20:08:25.360Z,65.00
2018-12-26T20:10:56.495Z,65.00
2018-12-26T20:13:27.501Z,65.00
2018-12-26T20:15:58.340Z,65.00
2018-12-26T20:18:29.165Z,65.00
2018-12-26T20:21:00.107Z,65.00
2018-12-26T20:23:31.213Z,64.90
2018-12-26T20:26:01.994Z,65.00
2018-12-26T20:28:35.165Z,65.10
2018-12-26T20:31:06.261Z,65.00
2018-12-26T20:33:37.108Z,64.90
2018-12-26T20:36:07.998Z,65.00
2018-12-26T20:38:38.921Z,65.00
2018-12-26T20:41:21.641Z,65.10
2018-12-26T20:43:52.571Z,65.00
2018-12-26T20:46:24.686Z,65.00
2018-12-26T20:49:07.389Z,65.00
2018-12-26T20:51:38.281Z,65.00
2018-12-26T20:54:09.033Z,65.00
2018-12-26T20:56:39.956Z,64.90
2018-12-26T20:59:10.899Z,65.10
2018-12-26T21:01:41.737Z,65.10
2018-12-26T21:04:12.628Z,65.10
2018-12-26T21:06:55.694Z,65.20
2018-12-26T21:09:26.522Z,65.30
2018-12-26T21:11:57.541Z,65.40
2018-12-26T21:14:28.342Z,65.50
2018-12-26T21:16:59.260Z,65.50
2018-12-26T21:19:42.070Z,65.50
2018-12-26T21:22:12.914Z,65.50
2018-12-26T21:24:43.801Z,65.50
2018-12-26T21:27:14.612Z,65.70
2018-12-26T21:29:45.616Z,65.70
2018-12-26T21:32:16.517Z,65.80
2018-12-26T21:34:47.266Z,65.70
2018-12-26T21:37:17.973Z,65.80
2018-12-26T21:39:48.813Z,65.80
2018-12-26T21:42:19.678Z,65.80
2018-12-26T21:44:50.497Z,65.70
2018-12-26T21:47:21.421Z,65.70
2018-12-26T21:49:52.324Z,65.80
2018-12-26T21:52:23.188Z,65.70
2018-12-26T21:54:53.948Z,65.70
2018-12-26T21:57:24.774Z,65.70
2018-12-26T21:59:55.704Z,65.70
2018-12-26T22:02:26.520Z,65.70
2018-12-26T22:04:57.401Z,65.70
2018-12-26T22:07:28.180Z,65.50
2018-12-26T22:09:59.081Z,65.60
2018-12-26T22:12:29.913Z,65.60
2018-12-26T22:15:12.219Z,65.70
2018-12-26T22:17:42.884Z,65.70
2018-12-26T22:20:13.767Z,65.70
2018-12-26T22:22:44.612Z,65.70
2018-12-26T22:25:27.294Z,65.70
2018-12-26T22:27:58.173Z,65.80
2018-12-26T22:30:29.117Z,65.70
2018-12-26T22:32:59.897Z,65.60
2018-12-26T22:35:32.553Z,65.60
2018-12-26T22:38:15.625Z,65.70
2018-12-26T22:40:46.768Z,65.70
2018-12-26T22:43:17.540Z,65.70
2018-12-26T22:45:48.363Z,65.60
2018-12-26T22:48:19.054Z,65.50
2018-12-26T22:50:49.962Z,65.40
2018-12-26T22:53:21.733Z,65.50
2018-12-26T22:55:53.423Z,65.50
2018-12-26T22:58:24.244Z,65.40
2018-12-26T23:00:55.221Z,65.40
2018-12-26T23:03:25.996Z,65.30
2018-12-26T23:05:56.867Z,65.40
2018-12-26T23:08:27.708Z,65.50
2018-12-26T23:11:10.285Z,65.50
2018-12-26T23:13:41.483Z,65.50
2018-12-26T23:16:12.610Z,65.50
2018-12-26T23:18:58.063Z,65.50
2018-12-26T23:21:28.504Z,65.50
2018-12-26T23:23:59.536Z,65.50
2018-12-26T23:26:31.681Z,65.50
2018-12-26T23:29:14.929Z,65.50
2018-12-26T23:31:45.854Z,65.40
2018-12-26T23:34:16.602Z,65.50
2018-12-26T23:36:47.610Z,65.50
2018-12-26T23:39:18.648Z,65.50
2018-12-26T23:41:59.824Z,65.50
2018-12-26T23:44:30.847Z,65.50
2018-12-26T23:47:02.055Z,65.50
2018-12-26T23:49:33.449Z,65.50
2018-12-26T23:52:04.849Z,65.50
2018-12-26T23:54:38.447Z,65.20
2018-12-26T23:57:22.078Z,65.10
2018-12-26T23:59:54.012Z,64.80
